Pede Vento — CRLZ9 — position and weather

sailwx.info

Track history (hours):
 
Tides and Currents Weather Stations Pressure Air Temp Water Temp Dewpoint Dewpoint Depression Visibility Wind Speed Wind Dir Waves Ship Positions

Pede Vento

Last reported at 2015-Mar-21 17:12 UTC. Time now 2015-Mar-28 00:34 UTC.
Position N 38°42' W 009°10'.

Length 12 m.

Type: Sailing vessel. MMSI: 263819560.

Date/timePositionNaut miles runAvg speedWind from/ knotsBaromVisibWave heightAir tempDewpointWater temp
2015-Mar-21 17:12N 38°42' W 009°10'1 1.2
2015-Mar-21 16:28N 38°42' W 009°11'3 3.1
2015-Mar-21 15:30N 38°42' W 009°08'3 3.1
2015-Mar-21 14:33N 38°44' W 009°06'4 4.3
2015-Mar-21 13:30N 38°41' W 009°10'2 2.3
2015-Mar-21 12:27N 38°41' W 009°07'2 2.5
2015-Mar-21 11:33N 38°42' W 009°10'  
2015-Mar-15 17:33N 38°42' W 009°10'4 4.2
2015-Mar-15 16:29N 38°41' W 009°15'4 4.6
2015-Mar-15 15:33N 38°38' W 009°19'5 5.4
2015-Mar-15 14:33N 38°33' W 009°16'6 5.6
2015-Mar-15 13:33N 38°27' W 009°15'7 0.3
2015-Mar-14 16:33N 38°26' W 009°06'7 6.6
2015-Mar-14 15:33N 38°25' W 009°14'7 7.1
2015-Mar-14 14:33N 38°30' W 009°20'8 7.0
2015-Mar-14 13:27N 38°38' W 009°22'7 7.9
2015-Mar-14 12:32N 38°41' W 009°14'  
Track history (hours):
 
Tides and Currents Weather Stations Pressure Air Temp Water Temp Dewpoint Dewpoint Depression Visibility Wind Speed Wind Dir Waves Ship Positions

Pede Vento

Last reported at 2015-Mar-21 17:12 UTC. Time now 2015-Mar-28 00:34 UTC.
Position N 38°42' W 009°10'.

Length 12 m.

Type: Sailing vessel. MMSI: 263819560.

Date/timePositionNaut miles runAvg speedWind from/ knotsBaromVisibWave heightAir tempDewpointWater temp
2015-Mar-21 17:12N 38°42' W 009°10'1 1.2
2015-Mar-21 16:28N 38°42' W 009°11'3 3.1
2015-Mar-21 15:30N 38°42' W 009°08'3 3.1
2015-Mar-21 14:33N 38°44' W 009°06'4 4.3
2015-Mar-21 13:30N 38°41' W 009°10'2 2.3
2015-Mar-21 12:27N 38°41' W 009°07'2 2.5
2015-Mar-21 11:33N 38°42' W 009°10'  
2015-Mar-15 17:33N 38°42' W 009°10'4 4.2
2015-Mar-15 16:29N 38°41' W 009°15'4 4.6
2015-Mar-15 15:33N 38°38' W 009°19'5 5.4
2015-Mar-15 14:33N 38°33' W 009°16'6 5.6
2015-Mar-15 13:33N 38°27' W 009°15'7 0.3
2015-Mar-14 16:33N 38°26' W 009°06'7 6.6
2015-Mar-14 15:33N 38°25' W 009°14'7 7.1
2015-Mar-14 14:33N 38°30' W 009°20'8 7.0
2015-Mar-14 13:27N 38°38' W 009°22'7 7.9
2015-Mar-14 12:32N 38°41' W 009°14'  

Dump ship's entire track history